Pleasant Hill, Oregon
Current Conditions -  °F | °C
As of 10:54 AM on Thursday 30 Oct 2014 (Local Time) from KEUG Reporting Station
Haze Haze  
Wind Chill: 57°   Ceiling: 11000
Heat Index: 57°   Visibility: 3mi
Dew Point: 56°   Wind: 5mph
Humidity: 96%   Direction: 220°SW
Pressure: 29.85"   Gusts: NA
Location:  43.97°N, 122.93°W
Report Text: KEUG 301754Z 22004KT 3SM BR SCT002 BKN110 OVC150 14/13 A2985 RMK AO2 SLP109 60001 T01390133 10139 20117 56012
Loading
Personal Weather Stations






























Interactive Weather Map New forecast layout! Learn more

10-Day Weather Forecast

Advertisements
Track Severe Weather on mobile